Aérodrome :
LOGIN :

S'inscrire | Disclaimer

   EN    FR    IT 

 










Légende :    VFR   VFR Marginal   IFR   IFR Intensif   IFR Très Intensif
Visi : 
Plafond : 
>= 8 km
>= 3000ft
5 à 8 km
1000 à 3000 ft
1500m à 5 km
500 à 1000 ft
800 à 1500m
200 à 500 ft
< 800m
< 200 ft
Symboles :   Orages  Brouillard  Fortes neiges  Fortes précipitations  Vent > 20 kt
SIGMETs :   Divers  Orages  Givrage  Turbulence  Onde Orograph.  Cendres Volcan.






- Altitude de l'aérodrome : 502 ft
- Code IATA : ORK


EICK - Cork

DERNIER METAR :
  • 180030Z 35010KT CAVOK 03/02 Q1019 NOSIG

METARs EXPIRÉS :
  • 180000Z 30006KT 9999 FEW030 03/01 Q1020 NOSIG
  • 172330Z 35007KT 9999 FEW030 03/01 Q1019 NOSIG
  • 172300Z 27004KT 9999 FEW030 03/02 Q1020 NOSIG
  • 172230Z 32002KT 9999 FEW027 04/02 Q1020 NOSIG
  • 172200Z 33007KT 9999 FEW027 05/02 Q1020 NOSIG

TAF TAF EICK
Valide du 18 à 00h jusqu'au 19 à 00h UTC


172300Z 1800/1824 31005KT 9999 FEW025
PROB40
TEMPO 1803/1810 3000 BR
PROB30
TEMPO 1803/1809 0300 FG BKN001
BECMG 1805/1808 VRB03KT
BECMG 1812/1815 14007KT
BECMG 1817/1820 14015KT
TEMPO 1821/1824 14017G27KT



MET'MAP, la Météo Aéronautique d'un coup d'oeil ! - Copyright ORBIFLY Décembre 2007 - Disclaimer

ORBIFLY MET'MAP TEAM :

Programmation & Développement : Alexandra Zaïnal
Conception & Développement : Baudouin d'Aumeries
Co-Programmation & Développement : Marc-Olivier Méhu
Soutien technique & logistique : Manuel Goepfert

Contact : metmap@orbifly.com




SOURCES & CREDITS :

   NOAA